Time;durP1;ratioP1;P1;durP2;ratioP2;P2;SDS_P1;SDS_P2;PMS_P1;PMS_P2;Temp;Humidity;BMP_temperature;BMP_pressure;BME280_temperature;BME280_humidity;BME280_pressure;Samples;Min_cycle;Max_cycle;Signal;HPM_P1;HPM_P2
2022/03/04 00:00:22;;;;;;;24.55;14.77;;;7.70;48.70;;;;;;5050596;28;20450;-68
2022/03/04 00:02:47;;;;;;;21.95;14.13;;;7.70;48.80;;;;;;5053695;28;20032;-69
2022/03/04 00:05:13;;;;;;;22.55;14.20;;;7.70;48.90;;;;;;5052683;28;20457;-68
2022/03/04 00:07:38;;;;;;;23.85;14.55;;;7.70;49.10;;;;;;5049957;28;20070;-68
2022/03/04 00:10:05;;;;;;;25.48;14.50;;;7.70;49.10;;;;;;5050223;28;20426;-68
2022/03/04 00:12:30;;;;;;;23.00;14.15;;;7.60;49.20;;;;;;5052581;28;20043;-68
2022/03/04 00:14:56;;;;;;;22.80;12.63;;;7.60;49.30;;;;;;5035996;28;20025;-68
2022/03/04 00:17:22;;;;;;;24.00;14.05;;;7.60;49.40;;;;;;5052844;28;20044;-68
2022/03/04 00:19:47;;;;;;;22.58;13.05;;;7.60;49.40;;;;;;5052145;28;20028;-68
2022/03/04 00:22:16;;;;;;;23.65;13.90;;;7.60;49.40;;;;;;5051874;28;20086;-68
2022/03/04 00:24:42;;;;;;;21.92;11.73;;;7.60;49.40;;;;;;5052306;28;20021;-68
2022/03/04 00:27:07;;;;;;;24.27;14.85;;;7.60;49.40;;;;;;5047296;28;20381;-68
2022/03/04 00:29:33;;;;;;;23.27;12.95;;;7.50;49.40;;;;;;5049626;28;20045;-68
2022/03/04 00:31:59;;;;;;;25.02;13.85;;;7.50;49.60;;;;;;5050579;28;20025;-68
2022/03/04 00:34:25;;;;;;;22.48;13.23;;;7.50;49.60;;;;;;5052867;28;20032;-68
2022/03/04 00:36:51;;;;;;;22.08;13.65;;;7.40;49.60;;;;;;5051581;28;20450;-68
2022/03/04 00:39:17;;;;;;;21.83;12.73;;;7.40;49.70;;;;;;5051524;28;20043;-68
2022/03/04 00:41:44;;;;;;;23.17;14.13;;;7.40;49.80;;;;;;5052740;28;20025;-68
2022/03/04 00:44:10;;;;;;;25.63;15.13;;;7.40;49.90;;;;;;5053152;28;20358;-69
2022/03/04 00:46:36;;;;;;;25.27;13.93;;;7.40;50.00;;;;;;5050743;28;20028;-68
2022/03/04 00:49:03;;;;;;;25.02;14.93;;;7.40;50.10;;;;;;5051528;28;20385;-68
2022/03/04 00:51:28;;;;;;;27.42;14.80;;;7.30;50.20;;;;;;5048813;28;20040;-68
2022/03/04 00:53:54;;;;;;;21.27;13.65;;;7.30;50.30;;;;;;5051543;28;20025;-68
2022/03/04 00:56:20;;;;;;;23.63;13.68;;;7.30;50.40;;;;;;5051097;28;20029;-68
2022/03/04 00:58:46;;;;;;;25.10;14.23;;;7.30;50.50;;;;;;5033768;28;20029;-68
2022/03/04 01:01:12;;;;;;;22.40;12.93;;;7.30;50.60;;;;;;5052413;28;20075;-68
2022/03/04 01:03:37;;;;;;;23.92;15.45;;;7.20;50.60;;;;;;5051072;28;20112;-68
2022/03/04 01:06:05;;;;;;;21.95;13.60;;;7.20;50.70;;;;;;5050266;28;20037;-68
2022/03/04 01:08:30;;;;;;;27.15;14.30;;;7.20;50.90;;;;;;5051623;28;20033;-68
2022/03/04 01:10:56;;;;;;;31.55;15.23;;;7.10;51.00;;;;;;5049667;28;20373;-68
2022/03/04 01:13:23;;;;;;;24.35;14.18;;;7.10;51.10;;;;;;5051563;28;20070;-68
2022/03/04 01:15:49;;;;;;;22.65;13.52;;;7.10;51.10;;;;;;5051401;28;20036;-68
2022/03/04 01:18:15;;;;;;;19.75;12.15;;;7.10;51.10;;;;;;5049734;28;20033;-68
2022/03/04 01:20:41;;;;;;;20.45;12.48;;;7.10;51.20;;;;;;5050485;28;20115;-69
2022/03/04 01:23:06;;;;;;;22.05;13.18;;;7.10;51.30;;;;;;5052792;28;20223;-68
2022/03/04 01:25:32;;;;;;;24.50;14.77;;;7.00;51.30;;;;;;5053679;28;20032;-68
2022/03/04 01:27:58;;;;;;;23.67;13.40;;;7.00;51.50;;;;;;5052506;28;20404;-68
2022/03/04 01:30:24;;;;;;;23.17;12.95;;;7.00;51.50;;;;;;5052061;28;20183;-68
2022/03/04 01:32:50;;;;;;;26.00;13.65;;;7.00;51.50;;;;;;5052790;28;20127;-68
2022/03/04 01:35:15;;;;;;;23.15;14.32;;;7.00;51.60;;;;;;5051633;28;20048;-68
2022/03/04 01:37:42;;;;;;;23.90;13.82;;;6.90;51.60;;;;;;5054575;28;20032;-68
2022/03/04 01:40:10;;;;;;;21.60;12.65;;;6.90;51.60;;;;;;5051927;28;20122;-68
2022/03/04 01:42:36;;;;;;;24.38;13.68;;;6.90;51.70;;;;;;5055315;28;20141;-69
2022/03/04 01:45:04;;;;;;;25.45;14.45;;;6.80;51.70;;;;;;5055713;28;20429;-69
2022/03/04 01:47:30;;;;;;;21.80;12.73;;;6.80;51.80;;;;;;5055121;28;20376;-68
2022/03/04 01:49:56;;;;;;;23.80;13.00;;;6.90;51.90;;;;;;5055306;28;20465;-68
2022/03/04 01:52:21;;;;;;;25.10;14.07;;;6.80;51.90;;;;;;5053595;28;20029;-68
2022/03/04 01:54:47;;;;;;;21.92;13.07;;;6.80;52.00;;;;;;5056255;28;20025;-68
2022/03/04 01:57:13;;;;;;;25.88;13.90;;;6.80;52.10;;;;;;5055284;28;20396;-68
2022/03/04 01:59:40;;;;;;;20.40;12.27;;;6.80;52.10;;;;;;5055984;28;20449;-69
2022/03/04 02:02:06;;;;;;;24.33;14.18;;;6.80;52.20;;;;;;5037806;28;20029;-68
2022/03/04 02:04:32;;;;;;;22.27;13.55;;;6.70;52.20;;;;;;5055673;28;20442;-68
2022/03/04 02:06:58;;;;;;;21.80;12.57;;;6.70;52.30;;;;;;5051738;28;20032;-68
2022/03/04 02:09:23;;;;;;;23.38;12.40;;;6.70;52.30;;;;;;5052906;28;20056;-68
2022/03/04 02:11:49;;;;;;;20.85;12.32;;;6.70;52.30;;;;;;5054435;28;20029;-68
2022/03/04 02:14:15;;;;;;;21.95;12.98;;;6.60;52.30;;;;;;5054343;28;20021;-68
2022/03/04 02:16:45;;;;;;;20.23;10.65;;;6.60;52.40;;;;;;5037738;28;20080;-68
2022/03/04 02:19:11;;;;;;;22.80;13.02;;;6.60;52.50;;;;;;5053358;28;20029;-68
2022/03/04 02:21:49;;;;;;;22.55;11.63;;;6.60;52.50;;;;;;5054497;28;20036;-68
2022/03/04 02:24:17;;;;;;;22.50;12.40;;;6.60;52.60;;;;;;5055127;28;20017;-68
2022/03/04 02:26:43;;;;;;;22.55;12.82;;;6.60;52.70;;;;;;5036021;28;20025;-68
2022/03/04 02:29:08;;;;;;;23.00;12.35;;;6.50;52.70;;;;;;5035384;28;20374;-68
2022/03/04 02:31:34;;;;;;;22.17;12.35;;;6.50;52.70;;;;;;5054369;28;20025;-68
2022/03/04 02:33:59;;;;;;;24.52;13.45;;;6.50;52.80;;;;;;5054352;28;20025;-68
2022/03/04 02:36:25;;;;;;;22.02;12.00;;;6.50;52.90;;;;;;5055283;28;20035;-68
2022/03/04 02:38:51;;;;;;;22.70;13.60;;;6.50;53.00;;;;;;5053847;28;20112;-68
2022/03/04 02:41:16;;;;;;;23.70;11.95;;;6.50;53.10;;;;;;5054058;28;20032;-68
2022/03/04 02:43:42;;;;;;;23.33;12.32;;;6.50;53.10;;;;;;5053500;28;20370;-68
2022/03/04 02:46:08;;;;;;;22.27;13.43;;;6.50;53.10;;;;;;5055185;28;20036;-68
2022/03/04 02:48:34;;;;;;;23.30;12.55;;;6.40;53.10;;;;;;5054176;28;20029;-68
2022/03/04 02:50:59;;;;;;;20.15;12.10;;;6.50;53.20;;;;;;5053353;28;20433;-68
2022/03/04 02:53:25;;;;;;;19.92;11.60;;;6.40;53.10;;;;;;5052716;28;20029;-68
2022/03/04 02:55:50;;;;;;;21.95;12.60;;;6.40;53.20;;;;;;5036975;28;20056;-68
2022/03/04 02:58:16;;;;;;;22.27;12.45;;;6.40;53.20;;;;;;5053877;28;20017;-68
2022/03/04 03:00:42;;;;;;;22.90;12.85;;;6.40;53.20;;;;;;5053561;28;20029;-68
2022/03/04 03:03:08;;;;;;;24.42;12.82;;;6.40;53.30;;;;;;5052798;28;20488;-68
2022/03/04 03:05:33;;;;;;;23.80;13.02;;;6.40;53.40;;;;;;5054059;28;20017;-68
2022/03/04 03:07:59;;;;;;;24.17;13.15;;;6.30;53.40;;;;;;5052807;28;20029;-68
2022/03/04 03:10:25;;;;;;;21.38;12.82;;;6.30;53.50;;;;;;5052746;28;20021;-68
2022/03/04 03:12:52;;;;;;;25.17;13.35;;;6.30;53.60;;;;;;5054138;28;20112;-68
2022/03/04 03:15:18;;;;;;;20.52;12.68;;;6.30;53.70;;;;;;5069401;28;20163;-68
2022/03/04 03:17:44;;;;;;;23.67;13.07;;;6.30;53.80;;;;;;5051784;28;20029;-68
2022/03/04 03:20:10;;;;;;;20.70;12.05;;;6.20;53.80;;;;;;5049818;28;20037;-68
2022/03/04 03:22:35;;;;;;;21.80;11.80;;;6.20;53.90;;;;;;5053935;28;20360;-68
2022/03/04 03:25:01;;;;;;;21.65;11.77;;;6.20;54.00;;;;;;5036200;28;20037;-68
2022/03/04 03:27:27;;;;;;;23.17;13.00;;;6.20;54.10;;;;;;5052557;28;20031;-68
2022/03/04 03:29:52;;;;;;;21.80;12.02;;;6.20;54.10;;;;;;5049709;28;20113;-68
2022/03/04 03:32:18;;;;;;;20.88;12.07;;;6.10;54.10;;;;;;5052384;28;20060;-68
2022/03/04 03:34:44;;;;;;;20.58;11.10;;;6.10;54.20;;;;;;5051166;28;20468;-68
2022/03/04 03:37:10;;;;;;;20.73;12.68;;;6.10;54.20;;;;;;5053815;28;20032;-68
2022/03/04 03:39:37;;;;;;;21.40;11.93;;;6.10;54.20;;;;;;5048511;28;20477;-68
2022/03/04 03:42:04;;;;;;;23.63;13.18;;;6.10;54.30;;;;;;5052934;28;20052;-68
2022/03/04 03:44:30;;;;;;;22.23;13.15;;;6.00;54.40;;;;;;5052703;28;20041;-68
2022/03/04 03:46:56;;;;;;;23.23;12.07;;;6.10;54.50;;;;;;5035643;28;20098;-68
2022/03/04 03:49:22;;;;;;;24.05;13.77;;;6.00;54.60;;;;;;5051468;28;20025;-68
2022/03/04 03:51:48;;;;;;;22.42;12.85;;;6.00;54.70;;;;;;5053461;28;20104;-68
2022/03/04 03:54:14;;;;;;;25.67;12.43;;;6.00;54.80;;;;;;5049360;28;20499;-68
2022/03/04 03:56:40;;;;;;;24.30;12.73;;;6.00;54.80;;;;;;5052484;28;20500;-68
2022/03/04 03:59:06;;;;;;;22.67;12.55;;;6.00;54.90;;;;;;5049939;28;20104;-68
2022/03/04 04:01:31;;;;;;;21.40;12.98;;;5.90;54.90;;;;;;5052072;28;20401;-68
2022/03/04 04:03:58;;;;;;;22.90;12.75;;;5.90;55.00;;;;;;5048914;28;20477;-68
2022/03/04 04:06:23;;;;;;;21.20;13.38;;;5.90;55.10;;;;;;5053373;28;20021;-68
2022/03/04 04:08:49;;;;;;;23.10;13.25;;;5.90;55.20;;;;;;5048999;28;20037;-67
2022/03/04 04:11:14;;;;;;;24.48;14.18;;;5.90;55.30;;;;;;5053253;28;20115;-68
2022/03/04 04:13:40;;;;;;;21.50;12.32;;;5.80;55.30;;;;;;5052235;28;20044;-68
2022/03/04 04:16:06;;;;;;;25.58;13.98;;;5.80;55.40;;;;;;5049158;28;20020;-68
2022/03/04 04:18:31;;;;;;;21.55;12.57;;;5.80;55.50;;;;;;5054945;28;20178;-68
2022/03/04 04:20:57;;;;;;;22.60;12.45;;;5.80;55.60;;;;;;5037550;28;20033;-68
2022/03/04 04:23:23;;;;;;;21.20;13.05;;;5.80;55.60;;;;;;5052168;28;20111;-68
2022/03/04 04:25:48;;;;;;;21.45;12.75;;;5.80;55.70;;;;;;5038434;28;20360;-68
2022/03/04 04:28:14;;;;;;;21.45;12.13;;;5.70;55.70;;;;;;5048278;28;20464;-68
2022/03/04 04:30:39;;;;;;;25.90;14.13;;;5.70;55.80;;;;;;5042975;28;20045;-68
2022/03/04 04:33:05;;;;;;;24.50;13.55;;;5.70;55.90;;;;;;5046488;28;20358;-68
2022/03/04 04:35:30;;;;;;;26.40;13.88;;;5.70;56.00;;;;;;5046789;28;20021;-68
2022/03/04 04:37:57;;;;;;;21.27;12.05;;;5.70;56.00;;;;;;5042607;28;20441;-68
2022/03/04 04:40:23;;;;;;;21.40;13.20;;;5.60;56.00;;;;;;5032994;28;20026;-68
2022/03/04 04:42:48;;;;;;;23.52;13.00;;;5.60;56.10;;;;;;5048546;28;20473;-68
2022/03/04 04:45:14;;;;;;;24.80;13.48;;;5.50;56.10;;;;;;5050757;28;20052;-68
2022/03/04 04:47:39;;;;;;;22.60;12.60;;;5.50;56.20;;;;;;5052723;28;20040;-68
2022/03/04 04:50:05;;;;;;;22.60;12.43;;;5.50;56.30;;;;;;5035714;28;20045;-68
2022/03/04 04:52:31;;;;;;;21.90;11.90;;;5.50;56.40;;;;;;5048497;28;20021;-68
2022/03/04 04:54:57;;;;;;;23.98;12.07;;;5.50;56.50;;;;;;5045545;28;20389;-68
2022/03/04 04:57:22;;;;;;;24.48;12.82;;;5.50;56.50;;;;;;5026605;28;20043;-68
2022/03/04 04:59:48;;;;;;;21.38;12.50;;;5.50;56.60;;;;;;5050340;28;20438;-68
2022/03/04 05:02:14;;;;;;;24.00;13.68;;;5.50;56.70;;;;;;5043411;28;20030;-68
2022/03/04 05:04:39;;;;;;;24.92;14.35;;;5.40;56.70;;;;;;5043452;28;20116;-68
2022/03/04 05:07:05;;;;;;;23.70;12.73;;;5.40;56.80;;;;;;5045953;28;20607;-68
2022/03/04 05:09:31;;;;;;;24.65;12.40;;;5.40;56.90;;;;;;5046143;28;20064;-68
2022/03/04 05:11:56;;;;;;;22.00;12.82;;;5.40;57.00;;;;;;5044510;28;20021;-68
2022/03/04 05:14:22;;;;;;;22.20;12.30;;;5.40;57.00;;;;;;5049705;28;20021;-68
2022/03/04 05:16:47;;;;;;;23.23;11.82;;;5.40;57.10;;;;;;5054849;28;20029;-68
2022/03/04 05:19:13;;;;;;;25.02;13.80;;;5.40;57.20;;;;;;5055955;28;20025;-68
2022/03/04 05:21:39;;;;;;;25.33;14.48;;;5.30;57.20;;;;;;5056776;28;20434;-68
2022/03/04 05:24:06;;;;;;;21.05;11.50;;;5.40;57.30;;;;;;5037521;28;20021;-68
2022/03/04 05:26:40;;;;;;;23.17;12.43;;;5.30;57.30;;;;;;5055881;28;20021;-68
2022/03/04 05:29:10;;;;;;;24.63;13.77;;;5.30;57.40;;;;;;5055802;28;20055;-68
2022/03/04 05:31:38;;;;;;;25.60;13.55;;;5.30;57.40;;;;;;5056103;28;20400;-68
2022/03/04 05:34:03;;;;;;;23.38;13.77;;;5.30;57.50;;;;;;5055740;28;20449;-68
2022/03/04 05:36:29;;;;;;;23.75;13.65;;;5.30;57.60;;;;;;5055425;28;20036;-68
2022/03/04 05:38:55;;;;;;;22.25;12.60;;;5.20;57.60;;;;;;5054821;28;20051;-68
2022/03/04 05:41:21;;;;;;;24.08;13.63;;;5.30;57.70;;;;;;5054644;28;20036;-68
2022/03/04 05:43:47;;;;;;;21.40;11.40;;;5.20;57.70;;;;;;5054391;28;20068;-68
2022/03/04 05:46:14;;;;;;;25.55;13.32;;;5.20;57.90;;;;;;5055115;28;20036;-68
2022/03/04 05:48:40;;;;;;;25.03;13.47;;;5.10;58.00;;;;;;5054232;28;20509;-67
2022/03/04 05:51:06;;;;;;;28.40;13.87;;;5.10;58.00;;;;;;5056836;28;20029;-68
2022/03/04 05:53:33;;;;;;;20.40;11.07;;;5.10;58.20;;;;;;5037199;28;20017;-68
2022/03/04 05:56:06;;;;;;;24.33;13.57;;;5.10;58.20;;;;;;5053636;28;20116;-68
2022/03/04 05:58:33;;;;;;;23.98;12.90;;;5.10;58.30;;;;;;5055470;28;20028;-67
2022/03/04 06:00:58;;;;;;;21.80;13.27;;;5.10;58.30;;;;;;5055725;28;20024;-68
2022/03/04 06:03:24;;;;;;;23.85;13.65;;;5.10;58.40;;;;;;5050467;28;20029;-68
2022/03/04 06:05:50;;;;;;;21.63;12.77;;;5.10;58.50;;;;;;5050815;28;20037;-68
2022/03/04 06:08:16;;;;;;;24.30;14.02;;;5.10;58.60;;;;;;5036382;28;20065;-69
2022/03/04 06:10:41;;;;;;;24.37;12.90;;;5.10;58.50;;;;;;5054745;28;20155;-68
2022/03/04 06:13:07;;;;;;;23.30;13.50;;;5.00;58.50;;;;;;5056655;28;20048;-68
2022/03/04 06:15:33;;;;;;;24.90;13.40;;;5.00;58.70;;;;;;5037466;28;20029;-67
2022/03/04 06:18:00;;;;;;;21.40;11.82;;;5.00;58.80;;;;;;5056181;28;20442;-68
2022/03/04 06:20:26;;;;;;;23.83;13.43;;;5.00;58.80;;;;;;5054224;28;20369;-68
2022/03/04 06:22:51;;;;;;;23.23;13.18;;;4.90;58.90;;;;;;5038866;28;20032;-68
2022/03/04 06:25:17;;;;;;;25.77;13.63;;;5.00;59.00;;;;;;5044085;28;20120;-68
2022/03/04 06:28:03;;;;;;;23.85;13.48;;;4.90;59.00;;;;;;5036764;28;20037;-68
2022/03/04 06:30:32;;;;;;;26.53;13.97;;;4.90;59.60;;;;;;5052380;28;20088;-68
2022/03/04 06:35:44;;;;;;;24.20;12.70;;;4.90;59.10;;;;;;5039889;28;20481;-69
2022/03/04 06:38:11;;;;;;;22.83;12.90;;;4.90;59.10;;;;;;5036708;28;20171;-70
2022/03/04 06:40:38;;;;;;;21.53;12.00;;;4.90;59.20;;;;;;5052652;28;20034;-70
2022/03/04 06:43:05;;;;;;;24.60;13.27;;;4.80;59.10;;;;;;5036752;28;20404;-70
2022/03/04 06:45:31;;;;;;;23.42;12.95;;;4.90;59.20;;;;;;5043147;28;20129;-70
2022/03/04 06:47:57;;;;;;;24.07;13.23;;;4.90;59.20;;;;;;5055442;28;20084;-70
2022/03/04 06:50:23;;;;;;;21.58;12.23;;;4.80;59.20;;;;;;5038294;28;20060;-70
2022/03/04 06:52:50;;;;;;;24.83;12.83;;;4.80;59.30;;;;;;5055706;28;20089;-70
2022/03/04 06:55:16;;;;;;;23.38;12.98;;;4.80;59.30;;;;;;5037093;28;20028;-70
2022/03/04 06:57:42;;;;;;;24.97;13.40;;;4.90;59.30;;;;;;5050633;28;20021;-69
2022/03/04 07:00:10;;;;;;;23.38;12.00;;;4.90;59.30;;;;;;5053490;28;20041;-70
2022/03/04 07:02:37;;;;;;;23.03;12.83;;;4.90;59.40;;;;;;5039295;28;20457;-69
2022/03/04 07:05:04;;;;;;;20.77;12.73;;;5.00;59.40;;;;;;5055546;28;20465;-68
2022/03/04 07:07:29;;;;;;;25.67;13.13;;;5.00;59.40;;;;;;5055559;28;20033;-68
2022/03/04 07:09:55;;;;;;;22.70;13.10;;;5.00;59.30;;;;;;5055483;28;20365;-69
2022/03/04 07:12:21;;;;;;;20.42;11.65;;;5.00;59.40;;;;;;5053802;28;20025;-69
2022/03/04 07:14:46;;;;;;;24.63;12.30;;;5.00;59.30;;;;;;5054942;28;20491;-68
2022/03/04 07:17:12;;;;;;;21.80;11.70;;;5.00;59.30;;;;;;5051428;28;20078;-68
2022/03/04 07:19:38;;;;;;;24.40;14.30;;;5.10;59.40;;;;;;5055561;28;20040;-68
2022/03/04 07:22:04;;;;;;;25.77;13.77;;;5.20;59.40;;;;;;5047313;28;20033;-68
2022/03/04 07:24:29;;;;;;;21.90;12.57;;;5.30;59.10;;;;;;5055566;28;20037;-68
2022/03/04 07:26:56;;;;;;;23.40;12.80;;;5.30;59.00;;;;;;5036775;28;20154;-66
2022/03/04 07:29:22;;;;;;;21.43;12.23;;;5.30;58.90;;;;;;5048771;28;20045;-68
2022/03/04 07:31:48;;;;;;;22.42;12.77;;;5.40;58.90;;;;;;5028772;28;20033;-68
2022/03/04 07:34:14;;;;;;;27.17;13.30;;;5.50;58.70;;;;;;5054384;28;20029;-68
2022/03/04 07:36:39;;;;;;;26.80;14.57;;;5.60;58.50;;;;;;5036543;28;20362;-66
2022/03/04 07:39:05;;;;;;;22.97;13.47;;;5.70;58.40;;;;;;5054240;28;20025;-67
2022/03/04 07:41:31;;;;;;;25.23;13.15;;;5.80;58.20;;;;;;5052294;28;20412;-67
2022/03/04 07:43:59;;;;;;;23.87;13.63;;;6.00;58.70;;;;;;5054095;28;20128;-67
2022/03/04 07:46:25;;;;;;;24.52;13.13;;;6.10;57.90;;;;;;5046255;28;20045;-67
2022/03/04 07:48:50;;;;;;;23.27;12.90;;;6.20;57.70;;;;;;5053818;28;20052;-68
2022/03/04 07:51:16;;;;;;;21.25;12.18;;;6.30;57.60;;;;;;5046800;28;20466;-68
2022/03/04 07:53:42;;;;;;;22.67;13.02;;;6.40;57.40;;;;;;5034625;28;20497;-68
2022/03/04 07:56:09;;;;;;;22.58;13.45;;;6.50;57.20;;;;;;5034907;28;20033;-68
2022/03/04 07:58:35;;;;;;;22.55;13.13;;;6.60;56.90;;;;;;5034825;28;20377;-68
2022/03/04 08:01:00;;;;;;;24.58;14.18;;;6.70;56.70;;;;;;5034848;28;20129;-68
2022/03/04 08:03:26;;;;;;;21.23;12.75;;;6.80;56.50;;;;;;5049467;28;20033;-68
2022/03/04 08:05:51;;;;;;;21.00;12.55;;;6.90;56.30;;;;;;5037200;28;20093;-68
2022/03/04 08:08:17;;;;;;;21.80;12.98;;;7.00;56.10;;;;;;5054816;28;20119;-68
2022/03/04 08:10:43;;;;;;;24.08;12.65;;;7.10;56.00;;;;;;5054628;28;20036;-68
2022/03/04 08:13:08;;;;;;;21.77;13.23;;;7.10;55.80;;;;;;5053499;28;20036;-68
2022/03/04 08:15:34;;;;;;;21.73;12.35;;;7.20;55.70;;;;;;5054644;28;20036;-68
2022/03/04 08:17:59;;;;;;;23.13;12.40;;;7.30;55.50;;;;;;5054666;28;20361;-68
2022/03/04 08:20:26;;;;;;;19.88;10.80;;;7.50;55.20;;;;;;5054467;28;20033;-68
2022/03/04 08:22:53;;;;;;;23.88;13.65;;;7.60;55.00;;;;;;5053485;28;20135;-69
2022/03/04 08:25:18;;;;;;;21.60;13.70;;;7.70;54.80;;;;;;5054818;28;20090;-69
2022/03/04 08:27:44;;;;;;;22.88;13.77;;;7.90;54.50;;;;;;5054442;28;20036;-69
2022/03/04 08:30:12;;;;;;;25.15;13.82;;;8.00;54.30;;;;;;5050220;28;20052;-68
2022/03/04 08:32:38;;;;;;;24.85;13.68;;;8.10;53.90;;;;;;5052929;28;20032;-66
2022/03/04 08:35:05;;;;;;;22.38;12.70;;;8.20;53.70;;;;;;5053805;28;20028;-67
2022/03/04 08:37:31;;;;;;;24.77;13.60;;;8.40;53.60;;;;;;5052198;28;20028;-67
2022/03/04 08:40:00;;;;;;;23.38;13.60;;;8.60;53.30;;;;;;5056354;28;20342;-71
2022/03/04 08:42:26;;;;;;;23.90;13.38;;;8.70;53.00;;;;;;5037327;28;20078;-68
2022/03/04 08:44:53;;;;;;;23.20;13.00;;;8.90;52.80;;;;;;5036322;28;20331;-67
2022/03/04 08:47:19;;;;;;;20.23;12.38;;;9.00;52.40;;;;;;5054522;28;20038;-68
2022/03/04 08:49:45;;;;;;;22.17;12.68;;;9.20;52.20;;;;;;5067311;28;20086;-67
2022/03/04 08:52:10;;;;;;;22.52;13.63;;;9.30;51.90;;;;;;5064266;28;20075;-69
2022/03/04 08:54:37;;;;;;;20.98;12.10;;;9.50;51.70;;;;;;5071253;28;20459;-69
2022/03/04 08:57:03;;;;;;;23.05;13.77;;;9.60;51.50;;;;;;5055949;28;20025;-68
2022/03/04 08:59:29;;;;;;;23.20;13.40;;;9.80;51.20;;;;;;5056233;28;20456;-68
2022/03/04 09:01:56;;;;;;;21.67;12.35;;;9.90;50.90;;;;;;5057452;28;20029;-69
2022/03/04 09:04:22;;;;;;;23.50;13.27;;;10.00;50.60;;;;;;5055478;28;20027;-69
2022/03/04 09:06:48;;;;;;;21.60;12.45;;;10.10;50.50;;;;;;5047400;28;20032;-69
2022/03/04 09:09:14;;;;;;;20.83;12.80;;;10.30;50.20;;;;;;5056865;28;20027;-68
2022/03/04 09:11:40;;;;;;;20.48;12.52;;;10.50;50.00;;;;;;5057108;28;20048;-68
2022/03/04 09:14:06;;;;;;;21.08;12.38;;;10.60;49.80;;;;;;5042675;28;20314;-69
2022/03/04 09:16:32;;;;;;;22.42;12.63;;;10.70;49.50;;;;;;5068801;28;20116;-68
2022/03/04 09:18:58;;;;;;;20.20;12.48;;;10.80;49.40;;;;;;5055070;28;20013;-68
2022/03/04 09:21:23;;;;;;;19.35;12.27;;;11.00;49.10;;;;;;5041081;28;20025;-68
2022/03/04 09:23:49;;;;;;;20.30;12.27;;;11.10;48.80;;;;;;5054019;28;20044;-68
2022/03/04 09:26:15;;;;;;;21.88;12.60;;;11.30;48.60;;;;;;5055175;28;20336;-69
2022/03/04 09:28:40;;;;;;;21.65;11.93;;;11.40;48.40;;;;;;5054085;28;20043;-69
2022/03/04 09:31:06;;;;;;;22.20;12.90;;;11.50;48.20;;;;;;5054292;28;20441;-69
2022/03/04 09:33:32;;;;;;;20.75;12.82;;;11.50;48.10;;;;;;5055881;28;20028;-69
2022/03/04 09:36:00;;;;;;;20.45;12.15;;;11.50;47.90;;;;;;5053731;28;20028;-69
2022/03/04 09:38:25;;;;;;;20.70;12.48;;;11.60;47.90;;;;;;5053278;28;20442;-68
2022/03/04 09:40:51;;;;;;;19.00;11.70;;;11.60;47.80;;;;;;5053871;28;20040;-68
2022/03/04 09:43:18;;;;;;;23.20;12.95;;;11.60;47.70;;;;;;5055625;28;20353;-67
2022/03/04 09:45:49;;;;;;;19.73;12.00;;;11.60;47.60;;;;;;5055656;28;20040;-67
2022/03/04 09:48:16;;;;;;;19.65;12.38;;;11.70;47.50;;;;;;5021115;28;20485;-67
2022/03/04 09:50:45;;;;;;;23.25;14.00;;;11.70;47.40;;;;;;5053994;28;20065;-69
2022/03/04 09:53:11;;;;;;;23.70;14.05;;;11.80;47.30;;;;;;5029701;28;20084;-70
2022/03/04 09:55:40;;;;;;;22.52;13.23;;;11.80;47.30;;;;;;5049545;28;20082;-69
2022/03/04 09:58:14;;;;;;;25.55;13.77;;;11.90;47.20;;;;;;5061149;28;20025;-69
2022/03/04 10:00:42;;;;;;;19.77;12.25;;;11.90;47.00;;;;;;5047323;28;20083;-69
2022/03/04 10:03:42;;;;;;;24.23;13.82;;;11.90;47.10;;;;;;5042965;28;20037;-65
2022/03/04 10:06:08;;;;;;;21.35;13.05;;;12.00;47.00;;;;;;5042786;28;20045;-67
2022/03/04 10:08:38;;;;;;;19.63;12.48;;;12.00;46.90;;;;;;5048071;28;20033;-67
2022/03/04 10:11:03;;;;;;;23.98;13.93;;;12.10;46.70;;;;;;5048319;28;20032;-69
2022/03/04 10:13:46;;;;;;;22.15;14.30;;;12.10;46.60;;;;;;5052177;28;20032;-69
2022/03/04 10:16:29;;;;;;;22.15;13.65;;;12.10;46.60;;;;;;5048766;28;20025;-71
2022/03/04 10:19:13;;;;;;;23.02;12.70;;;12.10;46.60;;;;;;5048802;28;20021;-72
2022/03/04 10:21:56;;;;;;;20.02;13.63;;;12.20;46.70;;;;;;5053635;28;20029;-69
2022/03/04 10:24:31;;;;;;;21.40;13.10;;;12.30;46.40;;;;;;5042210;28;20087;-69
2022/03/04 10:27:07;;;;;;;19.73;12.07;;;12.40;46.40;;;;;;5043840;28;20059;-69
2022/03/04 10:29:39;;;;;;;21.27;13.18;;;12.40;46.20;;;;;;5043429;28;20040;-69
2022/03/04 10:32:06;;;;;;;23.77;13.10;;;12.50;46.10;;;;;;5041046;28;20078;-69
2022/03/04 10:34:58;;;;;;;22.92;12.90;;;12.50;46.00;;;;;;5044937;28;20036;-68
2022/03/04 10:37:43;;;;;;;21.67;13.07;;;12.60;46.00;;;;;;5054824;28;20028;-68
2022/03/04 10:40:16;;;;;;;20.50;12.45;;;12.60;46.00;;;;;;5055947;28;20038;-68
2022/03/04 10:42:43;;;;;;;20.33;12.20;;;12.70;45.80;;;;;;5054582;28;20044;-71
2022/03/04 10:45:33;;;;;;;19.10;11.82;;;12.80;45.80;;;;;;5056415;28;20125;-71
2022/03/04 10:47:59;;;;;;;20.40;11.85;;;12.90;45.50;;;;;;5056167;28;20460;-70
2022/03/04 10:50:34;;;;;;;20.50;12.60;;;13.00;45.40;;;;;;5053941;28;20064;-68
2022/03/04 10:53:14;;;;;;;20.50;11.85;;;13.10;45.10;;;;;;5052843;28;20075;-70
2022/03/04 10:55:44;;;;;;;19.23;12.00;;;13.10;45.00;;;;;;5053820;28;20040;-74
2022/03/04 10:58:14;;;;;;;20.15;12.35;;;13.20;44.90;;;;;;5058945;28;20032;-75
2022/03/04 11:00:44;;;;;;;23.25;14.13;;;13.10;44.90;;;;;;5053406;28;20376;-74
2022/03/04 11:03:27;;;;;;;22.48;14.23;;;13.10;44.70;;;;;;5054743;28;20029;-74
2022/03/04 11:05:55;;;;;;;20.80;13.38;;;13.20;44.70;;;;;;5055052;28;20033;-74
2022/03/04 11:08:21;;;;;;;20.83;13.30;;;13.20;44.70;;;;;;5073135;28;20029;-73
2022/03/04 11:10:48;;;;;;;22.73;13.35;;;13.30;44.70;;;;;;5039719;28;20033;-73
2022/03/04 11:13:13;;;;;;;20.60;13.38;;;13.30;44.50;;;;;;5035087;28;20447;-72
2022/03/04 11:15:44;;;;;;;19.45;12.23;;;13.40;44.40;;;;;;5050313;28;20031;-73
2022/03/04 11:18:12;;;;;;;19.50;12.65;;;13.40;44.30;;;;;;5052045;28;20033;-73
2022/03/04 11:20:42;;;;;;;21.63;12.95;;;13.40;44.50;;;;;;5052735;28;20029;-75
2022/03/04 11:23:09;;;;;;;20.92;12.35;;;13.40;44.30;;;;;;5054407;28;20362;-73
2022/03/04 11:25:44;;;;;;;21.30;12.95;;;13.50;44.20;;;;;;5040336;28;20094;-75
2022/03/04 11:28:13;;;;;;;20.02;12.20;;;13.50;44.10;;;;;;5053062;28;20044;-71
2022/03/04 11:30:44;;;;;;;21.25;13.27;;;13.60;44.10;;;;;;5051436;28;20041;-74
2022/03/04 11:33:16;;;;;;;22.60;12.93;;;13.60;43.90;;;;;;5035906;28;20417;-76
2022/03/04 11:35:41;;;;;;;22.25;12.98;;;13.60;43.90;;;;;;5047149;28;20366;-70
2022/03/04 11:38:10;;;;;;;23.45;13.25;;;13.60;43.90;;;;;;5051347;28;20036;-68
2022/03/04 11:40:38;;;;;;;20.63;12.95;;;13.60;43.70;;;;;;5052837;28;20021;-68
2022/03/04 11:43:09;;;;;;;20.70;12.35;;;13.50;43.80;;;;;;5050865;28;20328;-67
2022/03/04 11:45:36;;;;;;;21.27;13.43;;;13.40;43.90;;;;;;5050763;28;20028;-67
2022/03/04 11:48:08;;;;;;;20.67;12.68;;;13.40;43.90;;;;;;5036068;28;20044;-68
2022/03/04 11:50:42;;;;;;;22.52;13.57;;;13.50;43.80;;;;;;5036072;28;20075;-67
2022/03/04 11:53:20;;;;;;;22.75;12.73;;;13.50;43.70;;;;;;5052802;28;20044;-67
2022/03/04 11:56:10;;;;;;;18.77;12.02;;;13.50;43.60;;;;;;5044861;28;20075;-67
2022/03/04 11:58:54;;;;;;;19.90;12.50;;;13.50;43.60;;;;;;5053815;28;20029;-66
2022/03/04 12:01:34;;;;;;;19.67;12.70;;;13.50;43.60;;;;;;5067213;28;20349;-67
2022/03/04 12:04:11;;;;;;;20.60;13.38;;;13.50;43.60;;;;;;5052407;28;20125;-66
2022/03/04 12:06:37;;;;;;;20.45;11.82;;;13.50;43.50;;;;;;5036426;28;20025;-67
2022/03/04 12:09:26;;;;;;;20.35;13.05;;;13.50;43.50;;;;;;5036626;28;20377;-68
2022/03/04 12:12:12;;;;;;;21.25;13.07;;;13.50;43.50;;;;;;5053067;28;20029;-67
2022/03/04 12:14:48;;;;;;;19.90;13.13;;;13.50;43.40;;;;;;5052551;28;20403;-67
2022/03/04 12:17:16;;;;;;;20.75;13.02;;;13.50;43.40;;;;;;5051163;28;20025;-67
2022/03/04 12:19:42;;;;;;;21.27;13.13;;;13.40;43.30;;;;;;5053128;28;20033;-67
2022/03/04 12:22:12;;;;;;;19.48;11.95;;;13.40;43.30;;;;;;5053714;28;20029;-67
2022/03/04 12:24:38;;;;;;;20.40;12.70;;;13.40;43.40;;;;;;5055251;28;20047;-67
2022/03/04 12:27:04;;;;;;;20.55;13.45;;;13.40;43.20;;;;;;5054047;28;20028;-67
2022/03/04 12:29:50;;;;;;;19.50;12.40;;;13.40;43.20;;;;;;5053707;28;20072;-67
2022/03/04 12:32:17;;;;;;;20.58;12.50;;;13.40;43.20;;;;;;5055393;28;20067;-67
2022/03/04 12:34:52;;;;;;;20.30;13.10;;;13.40;43.20;;;;;;5039425;28;20109;-67
2022/03/04 12:37:19;;;;;;;20.10;12.45;;;13.40;43.10;;;;;;5035147;28;20057;-67